Time;durP1;ratioP1;P1;durP2;ratioP2;P2;SDS_P1;SDS_P2;PMS_P1;PMS_P2;Temp;Humidity;BMP_temperature;BMP_pressure;BME280_temperature;BME280_humidity;BME280_pressure;Samples;Min_cycle;Max_cycle;Signal;HPM_P1;HPM_P2
2023/05/28 00:01:58;;;;;;;;;;;;;;;17.06;60.53;92837.66;2050054;70;20047;-74
2023/05/28 00:04:24;;;;;;;;;;;;;;;17.15;59.86;92842.28;2047075;70;20062;-74
2023/05/28 00:06:52;;;;;;;;;;;;;;;17.06;60.71;92844.06;2047704;70;20162;-74
2023/05/28 00:09:18;;;;;;;;;;;;;;;16.70;61.73;92846.88;2047566;70;20053;-74
2023/05/28 00:11:44;;;;;;;;;;;;;;;16.88;61.39;92844.06;2047656;70;20158;-74
2023/05/28 00:14:10;;;;;;;;;;;;;;;16.88;60.47;92837.66;2046827;70;20454;-74
2023/05/28 00:16:37;;;;;;;;;;;;;;;16.79;60.58;92833.03;2047488;70;20057;-74
2023/05/28 00:19:03;;;;;;;;;;;;;;;16.85;60.58;92831.16;2047514;70;20145;-74
2023/05/28 00:21:28;;;;;;;;;;;;;;;16.64;61.74;92838.13;2048352;70;20051;-74
2023/05/28 00:23:54;;;;;;;;;;;;;;;16.71;61.29;92833.41;2047643;70;20062;-75
2023/05/28 00:26:20;;;;;;;;;;;;;;;16.63;61.28;92830.22;2050399;70;20165;-75
2023/05/28 00:28:48;;;;;;;;;;;;;;;16.57;61.88;92832.84;2047456;70;20154;-74
2023/05/28 00:31:14;;;;;;;;;;;;;;;16.64;61.41;92826.03;2048141;70;20510;-73
2023/05/28 00:33:40;;;;;;;;;;;;;;;16.46;62.22;92832.41;2047999;70;20162;-75
2023/05/28 00:36:05;;;;;;;;;;;;;;;16.51;61.76;92827.63;2050341;70;20185;-74
2023/05/28 00:38:31;;;;;;;;;;;;;;;16.53;62.15;92822.75;2048125;70;20166;-74
2023/05/28 00:40:57;;;;;;;;;;;;;;;16.53;61.47;92822.75;2048009;70;20067;-74
2023/05/28 00:43:22;;;;;;;;;;;;;;;16.41;62.32;92824.38;2047519;70;20051;-74
2023/05/28 00:45:49;;;;;;;;;;;;;;;16.33;62.41;92824.78;2047952;70;20475;-74
2023/05/28 00:48:16;;;;;;;;;;;;;;;16.40;61.99;92825.75;2047427;70;20067;-74
2023/05/28 00:50:43;;;;;;;;;;;;;;;16.41;61.71;92822.28;2047479;70;20147;-74
2023/05/28 00:53:10;;;;;;;;;;;;;;;16.38;61.69;92820.72;2047980;70;20181;-74
2023/05/28 00:55:36;;;;;;;;;;;;;;;16.21;62.73;92822.13;2048072;70;20051;-75
2023/05/28 00:58:05;;;;;;;;;;;;;;;16.23;62.18;92813.72;2047492;70;20149;-75
2023/05/28 01:00:35;;;;;;;;;;;;;;;16.17;62.47;92815.56;2048165;70;20077;-75
2023/05/28 01:03:01;;;;;;;;;;;;;;;16.08;62.82;92810.91;2047637;70;20126;-76
2023/05/28 01:05:26;;;;;;;;;;;;;;;15.97;62.95;92818.28;2048099;70;20075;-75
2023/05/28 01:07:52;;;;;;;;;;;;;;;15.93;63.38;92821.69;2047673;70;20479;-75
2023/05/28 01:10:17;;;;;;;;;;;;;;;15.98;62.66;92820.47;2048167;70;20051;-75
2023/05/28 01:12:43;;;;;;;;;;;;;;;16.00;62.38;92819.84;2047438;70;20053;-75
2023/05/28 01:15:09;;;;;;;;;;;;;;;16.01;62.58;92816.34;2048117;70;20629;-75
2023/05/28 01:17:35;;;;;;;;;;;;;;;15.91;62.09;92818.03;2048150;70;20063;-74
2023/05/28 01:20:10;;;;;;;;;;;;;;;15.85;62.40;92820.59;2048261;70;20059;-74
2023/05/28 01:22:40;;;;;;;;;;;;;;;15.92;62.36;92808.13;2048234;70;20103;-75
2023/05/28 01:25:09;;;;;;;;;;;;;;;15.93;62.09;92801.81;2050868;70;20122;-75
2023/05/28 01:27:41;;;;;;;;;;;;;;;15.78;62.97;92804.69;2050748;70;20067;-75
2023/05/28 01:30:09;;;;;;;;;;;;;;;15.64;63.70;92807.63;2053605;70;20055;-74
2023/05/28 01:32:38;;;;;;;;;;;;;;;15.66;63.50;92791.41;2053295;70;20416;-75
2023/05/28 01:35:05;;;;;;;;;;;;;;;15.73;62.63;92796.00;2051385;70;20082;-74
2023/05/28 01:37:36;;;;;;;;;;;;;;;15.73;63.20;92790.31;2053608;70;20396;-75
2023/05/28 01:40:05;;;;;;;;;;;;;;;15.74;62.76;92782.53;2050674;70;20082;-75
2023/05/28 01:42:32;;;;;;;;;;;;;;;15.66;62.93;92793.53;2053612;70;20138;-74
2023/05/28 01:44:58;;;;;;;;;;;;;;;15.64;62.57;92791.34;2050756;70;20566;-74
2023/05/28 01:47:23;;;;;;;;;;;;;;;15.58;62.88;92787.47;2050862;70;20157;-74
2023/05/28 01:49:50;;;;;;;;;;;;;;;15.44;63.14;92790.41;2050748;70;20122;-74
2023/05/28 01:52:16;;;;;;;;;;;;;;;15.32;64.06;92787.78;2051276;69;20072;-75
2023/05/28 01:54:42;;;;;;;;;;;;;;;15.21;64.47;92772.44;2050592;70;20067;-75
2023/05/28 01:57:08;;;;;;;;;;;;;;;15.52;62.77;92785.09;2051311;70;20087;-75
2023/05/28 01:59:33;;;;;;;;;;;;;;;15.51;63.19;92787.22;2050759;70;20058;-75
2023/05/28 02:01:58;;;;;;;;;;;;;;;15.41;63.89;92789.59;2050793;70;20074;-75
2023/05/28 02:04:24;;;;;;;;;;;;;;;15.37;63.58;92783.03;2050744;70;20074;-74
2023/05/28 02:06:50;;;;;;;;;;;;;;;15.25;64.63;92794.53;2051125;70;20069;-75
2023/05/28 02:09:18;;;;;;;;;;;;;;;15.37;63.99;92786.59;2050505;70;20153;-75
2023/05/28 02:11:44;;;;;;;;;;;;;;;15.09;64.97;92783.22;2051208;70;20218;-72
2023/05/28 02:14:14;;;;;;;;;;;;;;;15.25;64.26;92781.09;2051008;69;20081;-74
2023/05/28 02:16:47;;;;;;;;;;;;;;;15.20;64.31;92782.28;2050794;70;20070;-73
2023/05/28 02:19:14;;;;;;;;;;;;;;;15.17;64.51;92771.50;2050818;70;20573;-73
2023/05/28 02:21:40;;;;;;;;;;;;;;;15.12;64.87;92775.50;2050524;70;20157;-74
2023/05/28 02:24:06;;;;;;;;;;;;;;;15.28;63.29;92778.38;2050733;70;20043;-73
2023/05/28 02:26:31;;;;;;;;;;;;;;;15.05;64.77;92780.19;2048080;69;20075;-73
2023/05/28 02:28:59;;;;;;;;;;;;;;;15.20;63.84;92776.63;2047313;70;20106;-73
2023/05/28 02:31:24;;;;;;;;;;;;;;;15.11;64.00;92779.72;2047150;70;20044;-74
2023/05/28 02:33:50;;;;;;;;;;;;;;;15.01;63.76;92785.66;2047263;70;20542;-73
2023/05/28 02:36:16;;;;;;;;;;;;;;;14.91;64.37;92782.38;2047359;70;20157;-73
2023/05/28 02:38:42;;;;;;;;;;;;;;;14.90;64.79;92780.91;2047692;70;20059;-74
2023/05/28 02:41:07;;;;;;;;;;;;;;;14.88;65.10;92783.66;2051685;70;20054;-74
2023/05/28 02:43:34;;;;;;;;;;;;;;;14.91;64.61;92783.09;2053807;70;20474;-74
2023/05/28 02:46:01;;;;;;;;;;;;;;;14.82;65.12;92772.03;2051371;70;20043;-74
2023/05/28 02:48:27;;;;;;;;;;;;;;;14.89;64.66;92779.44;2054541;69;20105;-74
2023/05/28 02:50:53;;;;;;;;;;;;;;;14.82;64.42;92784.09;2054623;70;20087;-74
2023/05/28 02:53:54;;;;;;;;;;;;;;;14.78;64.92;92783.19;2050095;70;20161;-74
2023/05/28 02:56:21;;;;;;;;;;;;;;;14.76;65.12;92780.25;2047072;70;20082;-74
2023/05/28 02:58:47;;;;;;;;;;;;;;;14.84;64.33;92784.19;2050286;70;20054;-74
2023/05/28 03:01:14;;;;;;;;;;;;;;;14.73;64.63;92791.50;2047547;70;20062;-74
2023/05/28 03:03:39;;;;;;;;;;;;;;;14.70;64.52;92786.34;2050372;70;20126;-74
2023/05/28 03:06:06;;;;;;;;;;;;;;;14.74;64.14;92797.88;2047095;70;20505;-74
2023/05/28 03:08:41;;;;;;;;;;;;;;;14.73;64.33;92791.50;2050345;70;20054;-74
2023/05/28 03:11:07;;;;;;;;;;;;;;;14.59;65.13;92793.66;2047553;70;20043;-74
2023/05/28 03:13:32;;;;;;;;;;;;;;;14.59;64.73;92790.81;2047348;70;20549;-74
2023/05/28 03:15:58;;;;;;;;;;;;;;;14.49;65.43;92793.91;2047550;70;20142;-74
2023/05/28 03:18:24;;;;;;;;;;;;;;;14.52;64.90;92796.81;2050300;70;20066;-74
2023/05/28 03:20:50;;;;;;;;;;;;;;;14.53;64.86;92799.03;2047494;70;20055;-74
2023/05/28 03:23:16;;;;;;;;;;;;;;;14.46;65.06;92792.31;2044769;70;20129;-74
2023/05/28 03:26:21;;;;;;;;;;;;;;;14.42;65.27;92797.03;2040435;70;20071;-74
2023/05/28 03:28:48;;;;;;;;;;;;;;;14.38;65.50;92802.50;2045951;70;20480;-74
2023/05/28 03:31:28;;;;;;;;;;;;;;;14.46;65.01;92797.97;2050861;70;20050;-74
2023/05/28 03:33:54;;;;;;;;;;;;;;;14.35;65.93;92800.97;2054090;70;20048;-74
2023/05/28 03:36:19;;;;;;;;;;;;;;;14.39;65.75;92801.16;2054640;70;20117;-73
2023/05/28 03:38:46;;;;;;;;;;;;;;;14.51;64.28;92798.94;2054439;69;20090;-74
2023/05/28 03:41:11;;;;;;;;;;;;;;;14.53;64.14;92801.88;2054029;70;20428;-74
2023/05/28 03:43:37;;;;;;;;;;;;;;;14.51;65.13;92801.75;2053859;70;20465;-74
2023/05/28 03:46:02;;;;;;;;;;;;;;;14.37;65.28;92798.94;2054510;69;20506;-74
2023/05/28 03:48:28;;;;;;;;;;;;;;;14.32;65.69;92800.13;2054603;69;20574;-74
2023/05/28 03:50:54;;;;;;;;;;;;;;;14.45;64.33;92807.84;2053983;70;20491;-73
2023/05/28 03:53:20;;;;;;;;;;;;;;;14.39;64.53;92801.91;2054068;70;20069;-75
2023/05/28 03:55:45;;;;;;;;;;;;;;;14.32;66.05;92796.56;2054917;69;20054;-75
2023/05/28 03:58:14;;;;;;;;;;;;;;;14.33;66.16;92798.75;2054405;70;20078;-74
2023/05/28 04:00:40;;;;;;;;;;;;;;;14.41;65.76;92796.31;2054502;69;20062;-74
2023/05/28 04:03:07;;;;;;;;;;;;;;;14.53;65.81;92798.31;2054591;70;20062;-75
2023/05/28 04:05:34;;;;;;;;;;;;;;;14.23;66.24;92799.00;2054442;70;20068;-75
2023/05/28 04:08:01;;;;;;;;;;;;;;;14.23;66.16;92792.59;2054410;70;20070;-74
2023/05/28 04:10:27;;;;;;;;;;;;;;;14.42;65.35;92794.22;2051611;70;20058;-74
2023/05/28 04:12:54;;;;;;;;;;;;;;;14.56;65.80;92794.19;2057009;69;20061;-74
2023/05/28 04:15:20;;;;;;;;;;;;;;;14.63;64.87;92795.97;2054913;69;20077;-74
2023/05/28 04:17:45;;;;;;;;;;;;;;;14.62;64.99;92800.91;2051622;70;20145;-74
2023/05/28 04:20:12;;;;;;;;;;;;;;;14.65;65.68;92796.03;2054431;69;20106;-75
2023/05/28 04:22:38;;;;;;;;;;;;;;;14.65;66.40;92799.59;2054444;70;20051;-74
2023/05/28 04:25:03;;;;;;;;;;;;;;;14.77;64.90;92799.47;2054378;70;20104;-74
2023/05/28 04:27:30;;;;;;;;;;;;;;;14.79;64.34;92790.31;2054408;70;20123;-74
2023/05/28 04:29:56;;;;;;;;;;;;;;;14.70;64.63;92794.84;2054260;70;20078;-74
2023/05/28 04:32:23;;;;;;;;;;;;;;;14.83;64.69;92796.91;2054363;70;20062;-74
2023/05/28 04:34:51;;;;;;;;;;;;;;;14.92;64.90;92798.72;2054382;70;20046;-74
2023/05/28 04:37:17;;;;;;;;;;;;;;;14.92;64.51;92795.91;2054395;70;20050;-74
2023/05/28 04:39:43;;;;;;;;;;;;;;;14.83;64.86;92796.91;2054269;70;20064;-74
2023/05/28 04:42:13;;;;;;;;;;;;;;;14.93;64.25;92794.53;2054333;70;20140;-74
2023/05/28 04:44:40;;;;;;;;;;;;;;;15.16;62.30;92795.53;2057036;69;20054;-74
2023/05/28 04:47:05;;;;;;;;;;;;;;;15.06;62.45;92792.25;2054143;70;20054;-74
2023/05/28 04:49:31;;;;;;;;;;;;;;;15.13;61.94;92797.56;2053596;70;20074;-75
2023/05/28 04:51:57;;;;;;;;;;;;;;;15.09;62.45;92793.81;2054396;70;20117;-74
2023/05/28 04:54:22;;;;;;;;;;;;;;;15.20;62.35;92798.56;2055192;69;20093;-74
2023/05/28 04:56:48;;;;;;;;;;;;;;;15.20;63.49;92807.06;2054596;69;20046;-74
2023/05/28 04:59:15;;;;;;;;;;;;;;;15.42;62.32;92807.34;2055150;69;20113;-73
2023/05/28 05:01:45;;;;;;;;;;;;;;;15.49;61.59;92797.75;2054626;70;20141;-73
2023/05/28 05:04:12;;;;;;;;;;;;;;;15.54;62.66;92793.72;2055219;69;20512;-74
2023/05/28 05:06:37;;;;;;;;;;;;;;;15.65;62.60;92797.75;2054298;70;20142;-75
2023/05/28 05:09:07;;;;;;;;;;;;;;;15.70;62.98;92799.38;2054501;70;20475;-73
2023/05/28 05:11:34;;;;;;;;;;;;;;;15.76;62.45;92805.34;2057320;69;20498;-74
2023/05/28 05:14:02;;;;;;;;;;;;;;;15.85;61.05;92801.47;2052821;70;20067;-74
2023/05/28 05:16:27;;;;;;;;;;;;;;;15.70;62.02;92802.22;2051732;70;20058;-74
2023/05/28 05:18:53;;;;;;;;;;;;;;;15.82;61.80;92797.09;2051206;70;20059;-73
2023/05/28 05:21:18;;;;;;;;;;;;;;;15.79;63.00;92800.47;2051733;70;20150;-73
2023/05/28 05:23:44;;;;;;;;;;;;;;;15.89;63.07;92800.91;2053937;70;20142;-73
2023/05/28 05:26:12;;;;;;;;;;;;;;;16.01;60.14;92798.59;2051114;70;20066;-73
2023/05/28 05:28:37;;;;;;;;;;;;;;;15.91;59.79;92798.16;2051062;70;20142;-73
2023/05/28 05:31:04;;;;;;;;;;;;;;;16.01;60.27;92804.25;2051192;70;20094;-73
2023/05/28 05:33:30;;;;;;;;;;;;;;;15.95;61.21;92804.00;2051682;70;20542;-73
2023/05/28 05:36:18;;;;;;;;;;;;;;;15.97;61.63;92799.13;2048337;70;20149;-75
2023/05/28 05:39:02;;;;;;;;;;;;;;;16.14;61.34;92802.66;2051597;70;20054;-74
2023/05/28 05:41:48;;;;;;;;;;;;;;;15.92;61.65;92796.78;2051663;70;20051;-74
2023/05/28 05:44:17;;;;;;;;;;;;;;;16.01;61.80;92798.59;2051009;70;20570;-74
2023/05/28 05:46:42;;;;;;;;;;;;;;;16.09;62.37;92801.03;2053864;70;20057;-74
2023/05/28 05:49:09;;;;;;;;;;;;;;;16.17;62.00;92810.63;2051169;70;20046;-75
2023/05/28 05:51:35;;;;;;;;;;;;;;;16.27;61.06;92799.69;2050606;70;20074;-75
2023/05/28 05:54:02;;;;;;;;;;;;;;;16.31;61.08;92804.06;2050559;70;20458;-74
2023/05/28 05:56:27;;;;;;;;;;;;;;;16.37;61.21;92805.06;2051100;70;20077;-75
2023/05/28 05:58:53;;;;;;;;;;;;;;;16.45;61.76;92804.66;2050513;70;20055;-74
2023/05/28 06:01:20;;;;;;;;;;;;;;;16.49;61.18;92802.72;2053848;70;20117;-74
2023/05/28 06:03:46;;;;;;;;;;;;;;;16.56;60.06;92798.00;2051047;70;20070;-73
2023/05/28 06:06:29;;;;;;;;;;;;;;;16.61;61.48;92791.09;2051798;70;20483;-73
2023/05/28 06:09:21;;;;;;;;;;;;;;;16.79;60.66;92788.28;2051299;70;20169;-75
2023/05/28 06:11:50;;;;;;;;;;;;;;;16.82;61.71;92780.56;2051084;70;20074;-75
2023/05/28 06:14:16;;;;;;;;;;;;;;;16.80;60.71;92786.88;2050975;70;20047;-74
2023/05/28 06:16:41;;;;;;;;;;;;;;;16.95;61.55;92783.22;2050900;70;20070;-75
2023/05/28 06:19:07;;;;;;;;;;;;;;;17.01;61.88;92777.78;2051027;70;20114;-75
2023/05/28 06:21:36;;;;;;;;;;;;;;;17.08;61.26;92780.84;2051034;70;20055;-74
2023/05/28 06:24:01;;;;;;;;;;;;;;;17.32;59.99;92781.00;2053525;70;20055;-75
2023/05/28 06:26:27;;;;;;;;;;;;;;;17.10;59.57;92778.09;2048278;70;20157;-75
2023/05/28 06:28:53;;;;;;;;;;;;;;;17.26;59.14;92770.13;2047638;70;20070;-75
2023/05/28 06:31:19;;;;;;;;;;;;;;;17.39;61.39;92774.91;2047650;70;20062;-75
2023/05/28 06:33:45;;;;;;;;;;;;;;;17.51;61.59;92772.50;2047785;70;20051;-75
2023/05/28 06:36:11;;;;;;;;;;;;;;;17.59;59.85;92768.47;2047735;70;20542;-74
2023/05/28 06:38:36;;;;;;;;;;;;;;;17.76;60.28;92767.69;2047613;70;20055;-75
2023/05/28 06:41:02;;;;;;;;;;;;;;;17.90;59.92;92771.03;2050546;70;20058;-75
2023/05/28 06:43:31;;;;;;;;;;;;;;;17.82;59.61;92773.59;2048233;70;20063;-75
2023/05/28 06:46:09;;;;;;;;;;;;;;;17.99;59.09;92778.47;2050968;70;20149;-76
2023/05/28 06:48:34;;;;;;;;;;;;;;;17.89;57.37;92771.72;2051546;70;20172;-75
2023/05/28 06:50:59;;;;;;;;;;;;;;;18.21;58.20;92772.81;2050984;70;20074;-74
2023/05/28 06:53:25;;;;;;;;;;;;;;;18.33;55.52;92772.50;2050781;70;20046;-75
2023/05/28 06:55:51;;;;;;;;;;;;;;;18.39;55.67;92772.69;2047703;70;20491;-74
2023/05/28 06:58:36;;;;;;;;;;;;;;;18.50;57.38;92771.63;2048049;70;20050;-73
2023/05/28 07:01:07;;;;;;;;;;;;;;;18.03;55.23;92772.94;2048366;70;20051;-75
2023/05/28 07:04:08;;;;;;;;;;;;;;;18.52;55.41;92760.31;2045774;70;20093;-75
2023/05/28 07:06:44;;;;;;;;;;;;;;;18.32;55.14;92761.75;2047752;70;20055;-74
2023/05/28 07:09:16;;;;;;;;;;;;;;;18.50;53.97;92765.19;2047699;70;20055;-75
2023/05/28 07:11:42;;;;;;;;;;;;;;;18.12;55.31;92751.16;2048164;70;20099;-75
2023/05/28 07:14:07;;;;;;;;;;;;;;;18.65;53.83;92761.44;2047498;70;20122;-75
2023/05/28 07:16:33;;;;;;;;;;;;;;;18.63;54.36;92763.47;2047747;70;20098;-74
2023/05/28 07:18:58;;;;;;;;;;;;;;;18.97;52.37;92753.19;2048426;70;20051;-76
2023/05/28 07:21:29;;;;;;;;;;;;;;;18.05;52.70;92760.88;2048315;70;20253;-77
2023/05/28 07:23:56;;;;;;;;;;;;;;;18.37;53.56;92755.53;2048569;70;20162;-76
2023/05/28 07:26:21;;;;;;;;;;;;;;;18.46;52.58;92760.13;2047638;70;20051;-76
2023/05/28 07:28:47;;;;;;;;;;;;;;;18.98;52.62;92757.50;2047982;70;20062;-76
2023/05/28 07:31:12;;;;;;;;;;;;;;;19.17;55.17;92758.03;2047968;70;20055;-76
2023/05/28 07:33:39;;;;;;;;;;;;;;;19.15;52.01;92767.28;2048093;70;20122;-75
2023/05/28 07:36:04;;;;;;;;;;;;;;;18.76;51.69;92756.78;2048602;70;20507;-76
2023/05/28 07:38:31;;;;;;;;;;;;;;;18.40;52.91;92754.19;2052064;69;20061;-76
2023/05/28 07:40:59;;;;;;;;;;;;;;;19.18;53.82;92748.81;2057518;69;20046;-76
2023/05/28 07:43:29;;;;;;;;;;;;;;;19.17;51.69;92752.34;2054607;70;20121;-77
2023/05/28 07:45:59;;;;;;;;;;;;;;;19.75;50.77;92761.16;2054603;70;20525;-77
2023/05/28 07:48:31;;;;;;;;;;;;;;;20.10;50.84;92750.66;2054650;70;20125;-77
2023/05/28 07:51:10;;;;;;;;;;;;;;;20.20;50.14;92753.78;2054582;70;20059;-77
2023/05/28 07:53:48;;;;;;;;;;;;;;;19.90;50.78;92748.72;2054691;69;20072;-77
2023/05/28 07:56:18;;;;;;;;;;;;;;;20.20;50.05;92745.19;2057580;69;20404;-76
2023/05/28 07:58:45;;;;;;;;;;;;;;;19.82;49.66;92748.50;2055849;70;20574;-77
2023/05/28 08:01:12;;;;;;;;;;;;;;;20.19;49.93;92755.19;2054762;69;20078;-77
2023/05/28 08:03:38;;;;;;;;;;;;;;;20.17;50.02;92740.84;2057382;69;20089;-77
2023/05/28 08:06:04;;;;;;;;;;;;;;;20.02;49.28;92748.31;2054561;70;20504;-76
2023/05/28 08:08:30;;;;;;;;;;;;;;;20.41;48.22;92744.31;2054618;70;20059;-76
2023/05/28 08:10:55;;;;;;;;;;;;;;;20.73;47.97;92741.56;2054719;70;20053;-77
2023/05/28 08:13:21;;;;;;;;;;;;;;;20.89;47.48;92734.75;2055053;69;20046;-76
2023/05/28 08:15:47;;;;;;;;;;;;;;;21.21;48.77;92746.19;2054584;69;20149;-76
2023/05/28 08:18:12;;;;;;;;;;;;;;;21.20;47.23;92736.16;2054546;70;20054;-76
2023/05/28 08:20:39;;;;;;;;;;;;;;;20.96;47.91;92730.63;2054726;69;20113;-77
2023/05/28 08:23:12;;;;;;;;;;;;;;;21.11;47.84;92732.38;2057368;69;20137;-77
2023/05/28 08:25:38;;;;;;;;;;;;;;;21.40;48.01;92735.91;2054392;70;20116;-77
2023/05/28 08:28:09;;;;;;;;;;;;;;;21.65;47.80;92728.53;2054419;70;20058;-77
2023/05/28 08:30:36;;;;;;;;;;;;;;;21.47;47.57;92731.75;2054731;70;20046;-77
2023/05/28 08:33:15;;;;;;;;;;;;;;;21.86;46.36;92739.00;2055165;69;20046;-76
2023/05/28 08:35:41;;;;;;;;;;;;;;;21.72;46.12;92736.59;2054590;70;20463;-76
2023/05/28 08:38:07;;;;;;;;;;;;;;;21.69;46.46;92731.50;2054565;69;20050;-76
2023/05/28 08:40:41;;;;;;;;;;;;;;;21.73;46.81;92726.56;2054473;70;20082;-76
2023/05/28 08:43:07;;;;;;;;;;;;;;;21.80;46.47;92724.53;2055081;69;20050;-76
2023/05/28 08:45:34;;;;;;;;;;;;;;;21.89;45.88;92719.69;2054542;70;20252;-76
2023/05/28 08:48:00;;;;;;;;;;;;;;;21.90;44.87;92710.41;2054465;70;20051;-77
2023/05/28 08:50:27;;;;;;;;;;;;;;;21.64;45.12;92715.63;2054520;70;20050;-76
2023/05/28 08:53:02;;;;;;;;;;;;;;;21.97;45.00;92703.38;2054544;70;20549;-76
2023/05/28 08:55:28;;;;;;;;;;;;;;;22.20;45.01;92698.78;2054519;70;20051;-76
2023/05/28 08:58:02;;;;;;;;;;;;;;;21.94;46.29;92706.88;2054341;69;20046;-76
2023/05/28 09:00:29;;;;;;;;;;;;;;;22.02;46.32;92704.91;2054512;70;20057;-75
2023/05/28 09:03:18;;;;;;;;;;;;;;;21.89;46.48;92699.63;2053974;70;20093;-76
2023/05/28 09:05:44;;;;;;;;;;;;;;;22.87;44.25;92701.31;2054536;70;20527;-76
2023/05/28 09:08:10;;;;;;;;;;;;;;;22.86;45.29;92696.97;2054465;70;20121;-77
2023/05/28 09:10:37;;;;;;;;;;;;;;;22.99;45.00;92690.03;2055213;69;20051;-77
2023/05/28 09:13:04;;;;;;;;;;;;;;;23.73;44.57;92683.84;2057297;69;20066;-77
2023/05/28 09:15:31;;;;;;;;;;;;;;;23.35;43.77;92681.19;2057239;69;20597;-75
2023/05/28 09:17:59;;;;;;;;;;;;;;;22.78;43.68;92678.22;2054642;70;20138;-75
2023/05/28 09:20:27;;;;;;;;;;;;;;;23.76;44.42;92678.84;2055021;69;20128;-76
2023/05/28 09:22:57;;;;;;;;;;;;;;;23.44;43.31;92677.00;2054500;70;20089;-76
2023/05/28 09:25:38;;;;;;;;;;;;;;;23.72;42.87;92667.28;2054497;70;20073;-75
2023/05/28 09:28:13;;;;;;;;;;;;;;;24.39;44.02;92675.91;2057159;69;20104;-77
2023/05/28 09:30:39;;;;;;;;;;;;;;;24.61;42.59;92672.50;2055024;69;20058;-77
2023/05/28 09:33:05;;;;;;;;;;;;;;;24.92;41.05;92676.31;2055142;69;20072;-77
2023/05/28 09:35:33;;;;;;;;;;;;;;;25.13;41.62;92666.41;2052313;69;20053;-76
2023/05/28 09:37:59;;;;;;;;;;;;;;;25.56;41.87;92667.34;2053931;69;20055;-76
2023/05/28 09:40:26;;;;;;;;;;;;;;;25.42;40.52;92670.16;2051713;69;20061;-76
2023/05/28 09:42:51;;;;;;;;;;;;;;;25.04;40.81;92667.75;2051615;70;20055;-75
2023/05/28 09:45:22;;;;;;;;;;;;;;;24.72;41.18;92662.50;2053564;70;20098;-75
2023/05/28 09:47:47;;;;;;;;;;;;;;;25.03;41.11;92660.56;2052403;70;20053;-76
2023/05/28 09:50:12;;;;;;;;;;;;;;;25.56;40.47;92658.69;2051183;70;20086;-76
2023/05/28 09:52:39;;;;;;;;;;;;;;;25.56;40.42;92663.72;2051508;69;20057;-77
2023/05/28 09:55:07;;;;;;;;;;;;;;;25.97;40.04;92667.50;2051645;69;20050;-77
2023/05/28 09:57:33;;;;;;;;;;;;;;;27.08;39.14;92659.69;2051597;70;20416;-77
2023/05/28 10:00:10;;;;;;;;;;;;;;;26.68;38.67;92669.81;2051504;69;20061;-78
2023/05/28 10:02:43;;;;;;;;;;;;;;;26.69;39.12;92651.03;2051658;69;20078;-77
2023/05/28 10:05:10;;;;;;;;;;;;;;;26.74;37.85;92654.66;2051603;69;20054;-76
2023/05/28 10:07:37;;;;;;;;;;;;;;;27.35;37.78;92658.19;2051682;69;20062;-77
2023/05/28 10:10:03;;;;;;;;;;;;;;;26.95;38.66;92655.38;2051604;70;20086;-77
2023/05/28 10:12:29;;;;;;;;;;;;;;;26.31;37.72;92658.22;2051629;70;20090;-77
2023/05/28 10:14:55;;;;;;;;;;;;;;;26.59;38.04;92654.66;2051520;70;20507;-77
2023/05/28 10:17:21;;;;;;;;;;;;;;;26.65;37.67;92644.53;2051549;70;20062;-74
2023/05/28 10:19:46;;;;;;;;;;;;;;;28.08;36.72;92651.41;2051548;70;20101;-77
2023/05/28 10:22:12;;;;;;;;;;;;;;;28.65;34.79;92655.41;2051566;70;20047;-76
2023/05/28 10:24:38;;;;;;;;;;;;;;;28.64;33.43;92651.81;2051598;70;20141;-78
2023/05/28 10:27:09;;;;;;;;;;;;;;;29.64;33.69;92656.69;2051539;70;20138;-77
2023/05/28 10:29:41;;;;;;;;;;;;;;;30.57;32.55;92651.84;2051455;70;20050;-78
2023/05/28 10:32:07;;;;;;;;;;;;;;;28.87;33.46;92653.06;2051543;70;20504;-75
2023/05/28 10:34:35;;;;;;;;;;;;;;;29.61;33.55;92640.78;2051575;70;20086;-76
2023/05/28 10:37:03;;;;;;;;;;;;;;;31.63;29.69;92650.09;2052074;69;20082;-76
2023/05/28 10:39:41;;;;;;;;;;;;;;;34.50;26.59;92655.56;2051447;70;20054;-75
2023/05/28 10:42:07;;;;;;;;;;;;;;;34.45;25.12;92654.22;2051537;70;20050;-76
2023/05/28 10:44:53;;;;;;;;;;;;;;;36.97;24.09;92655.84;2051415;70;20475;-76
2023/05/28 10:47:18;;;;;;;;;;;;;;;36.95;23.15;92656.63;2050154;70;20146;-77
2023/05/28 10:49:57;;;;;;;;;;;;;;;34.80;24.31;92645.16;2051668;70;20134;-77
2023/05/28 10:52:25;;;;;;;;;;;;;;;37.93;22.01;92643.06;2051581;70;20150;-75
2023/05/28 10:54:52;;;;;;;;;;;;;;;40.61;21.78;92646.25;2051110;70;20054;-76
2023/05/28 10:57:18;;;;;;;;;;;;;;;40.76;19.36;92649.13;2051553;70;20419;-75
2023/05/28 10:59:52;;;;;;;;;;;;;;;39.87;20.55;92647.16;2051163;70;20395;-75
2023/05/28 11:02:20;;;;;;;;;;;;;;;40.13;20.66;92641.41;2051637;70;20146;-78
2023/05/28 11:04:49;;;;;;;;;;;;;;;39.33;19.99;92633.66;2051281;70;20059;-77
2023/05/28 11:07:14;;;;;;;;;;;;;;;41.25;18.56;92641.22;2051609;70;20053;-77
2023/05/28 11:09:41;;;;;;;;;;;;;;;40.90;19.30;92639.50;2051460;70;20070;-75
2023/05/28 11:12:07;;;;;;;;;;;;;;;43.41;17.06;92629.63;2051462;70;20480;-76
2023/05/28 11:14:36;;;;;;;;;;;;;;;40.72;18.76;92616.91;2051183;70;20116;-76
2023/05/28 11:17:06;;;;;;;;;;;;;;;39.65;19.13;92615.88;2051367;70;20073;-77
2023/05/28 11:19:38;;;;;;;;;;;;;;;43.68;16.61;92626.34;2051468;70;20545;-79
2023/05/28 11:22:03;;;;;;;;;;;;;;;45.27;15.97;92626.44;2050694;70;20077;-76
2023/05/28 11:24:29;;;;;;;;;;;;;;;45.96;15.36;92623.59;2050441;70;20726;-76
2023/05/28 11:26:54;;;;;;;;;;;;;;;46.00;15.89;92621.00;2047473;70;20105;-76
2023/05/28 11:29:20;;;;;;;;;;;;;;;40.02;17.58;92602.91;2050648;70;20134;-80
2023/05/28 11:31:46;;;;;;;;;;;;;;;32.73;24.23;92585.16;2051166;70;20067;-75
2023/05/28 11:34:11;;;;;;;;;;;;;;;33.99;23.34;92590.56;2051361;70;20051;-76
2023/05/28 11:36:40;;;;;;;;;;;;;;;33.33;24.41;92582.91;2051599;70;20043;-75
2023/05/28 11:39:06;;;;;;;;;;;;;;;34.73;23.37;92580.31;2051370;70;20091;-76
2023/05/28 11:41:32;;;;;;;;;;;;;;;34.07;22.25;92566.97;2051666;70;20135;-75
2023/05/28 11:43:57;;;;;;;;;;;;;;;31.77;22.10;92558.88;2051308;70;20070;-76
2023/05/28 11:46:23;;;;;;;;;;;;;;;33.87;20.60;92570.50;2051333;70;20070;-76
2023/05/28 11:48:50;;;;;;;;;;;;;;;41.20;16.46;92581.00;2050776;70;20142;-76
2023/05/28 11:51:18;;;;;;;;;;;;;;;35.52;20.47;92567.47;2051360;70;20487;-75
2023/05/28 11:53:44;;;;;;;;;;;;;;;35.36;19.49;92569.44;2051323;70;20491;-77
2023/05/28 11:56:10;;;;;;;;;;;;;;;34.72;20.35;92566.47;2051264;70;20118;-76
2023/05/28 11:58:41;;;;;;;;;;;;;;;31.70;22.52;92545.22;2051191;70;20495;-77
2023/05/28 12:01:08;;;;;;;;;;;;;;;35.57;19.03;92568.75;2051214;70;20499;-76
2023/05/28 12:03:37;;;;;;;;;;;;;;;31.18;23.34;92551.31;2050818;70;20061;-75
2023/05/28 12:06:03;;;;;;;;;;;;;;;29.47;25.91;92554.66;2051490;70;20047;-76
2023/05/28 12:08:28;;;;;;;;;;;;;;;29.78;26.26;92552.09;2051271;70;20491;-78
2023/05/28 12:10:59;;;;;;;;;;;;;;;30.61;26.47;92561.75;2051296;70;20058;-77
2023/05/28 12:13:29;;;;;;;;;;;;;;;29.33;27.10;92549.75;2051157;70;20062;-77
2023/05/28 12:16:04;;;;;;;;;;;;;;;29.54;25.89;92552.38;2050912;70;20047;-77
2023/05/28 12:18:30;;;;;;;;;;;;;;;28.87;26.65;92559.63;2051795;70;20581;-77
2023/05/28 12:20:58;;;;;;;;;;;;;;;28.19;27.27;92550.78;2051910;69;20058;-77
2023/05/28 12:23:23;;;;;;;;;;;;;;;27.48;28.11;92557.69;2051897;70;20471;-77
2023/05/28 12:25:49;;;;;;;;;;;;;;;28.18;28.21;92545.72;2051787;70;20083;-75
2023/05/28 12:28:18;;;;;;;;;;;;;;;29.36;26.21;92565.63;2051639;70;20054;-76
2023/05/28 12:30:45;;;;;;;;;;;;;;;29.02;25.71;92560.94;2051264;70;20047;-76
2023/05/28 12:33:12;;;;;;;;;;;;;;;28.75;26.91;92556.84;2051393;70;20222;-77
2023/05/28 12:35:38;;;;;;;;;;;;;;;29.96;26.77;92554.00;2051775;70;20054;-75
2023/05/28 12:38:03;;;;;;;;;;;;;;;29.46;25.50;92561.16;2051920;69;20152;-77
2023/05/28 12:40:29;;;;;;;;;;;;;;;28.14;27.26;92551.56;2051757;69;20058;-77
2023/05/28 12:42:54;;;;;;;;;;;;;;;27.98;26.83;92538.63;2051704;70;20146;-77
2023/05/28 12:45:20;;;;;;;;;;;;;;;28.66;27.18;92541.72;2052054;70;20534;-77
2023/05/28 12:47:45;;;;;;;;;;;;;;;27.63;27.68;92543.91;2053488;70;20087;-76
2023/05/28 12:50:11;;;;;;;;;;;;;;;28.30;27.30;92539.84;2051938;70;20077;-76
2023/05/28 12:52:36;;;;;;;;;;;;;;;28.27;27.33;92533.38;2051985;70;20053;-77